Date,TemperatureHighF,TemperatureAvgF,TemperatureLowF,DewpointHighF,DewpointAvgF,DewpointLowF,HumidityHigh,HumidityAvg,HumidityLow,PressureMaxIn,PressureMinIn,WindSpeedMaxMPH,WindSpeedAvgMPH,GustSpeedMaxMPH,PrecipitationSumIn
2013-5-17,62.8,56.4,46.4,39.0,37.9,36.0,76,52,37,30.23,30.05,8,2,15,0.00
2013-5-18,71.8,55.9,40.3,46.0,40.1,33.0,91,60,30,30.31,30.22,6,1,10,0.00
2013-5-19,66.4,53.2,41.7,55.0,49.3,41.0,99,88,63,30.32,30.18,6,1,7,0.17
2013-5-20,73.6,62.2,52.9,63.0,58.1,52.0,99,87,67,30.17,29.95,15,2,22,0.01
2013-5-21,79.9,62.5,48.7,68.0,58.7,48.0,99,88,64,30.02,29.85,9,1,16,0.75
2013-5-22,63.2,54.6,48.9,61.0,54.1,48.0,100,98,90,29.95,29.83,7,1,12,0.80
2013-5-23,75.4,62.2,49.9,68.0,59.6,50.0,100,92,72,29.89,29.75,10,2,20,0.03
2013-5-24,64.5,54.7,43.1,63.0,53.3,42.0,100,95,88,29.88,29.62,8,2,17,0.36
2013-5-25,43.3,39.9,33.4,43.0,39.3,33.0,99,98,96,29.87,29.80,12,3,17,0.77
2013-5-26,48.9,41.8,33.6,41.0,37.5,33.0,99,85,69,30.10,29.78,11,4,21,0.08
2013-5-27,65.5,52.8,40.7,41.0,37.7,33.0,86,60,33,30.20,30.08,10,3,18,0.00
2013-5-28,73.0,57.2,40.4,48.0,42.2,36.0,85,60,36,30.25,30.14,6,1,8,0.00
2013-5-29,61.3,55.0,48.6,60.0,53.1,44.0,100,94,69,30.16,29.98,3,0,7,0.21
2013-5-30,83.4,73.2,57.5,66.0,63.8,58.0,100,74,51,30.09,30.01,15,5,21,0.00
2013-5-31,89.4,79.3,68.1,67.0,63.1,55.0,82,60,33,30.07,29.90,11,3,14,0.00
2013-6-1,88.9,80.7,74.0,69.0,64.9,62.0,76,60,42,29.92,29.80,10,3,15,0.00
2013-6-2,88.5,74.8,64.8,71.0,66.9,64.0,98,78,52,29.80,29.63,12,3,27,1.10
2013-6-3,73.6,66.2,54.2,64.0,56.4,44.0,95,73,38,29.81,29.73,12,3,20,0.00
2013-6-4,64.9,55.1,46.0,46.0,42.9,39.0,77,64,46,30.11,29.82,9,4,20,0.00
2013-6-5,72.3,58.7,48.2,47.0,43.1,38.0,85,58,35,30.20,30.09,7,1,12,0.00
2013-6-6,70.4,59.5,49.1,56.0,47.1,38.0,94,65,45,30.18,30.08,3,1,8,0.02
2013-6-7,53.7,50.1,48.2,52.0,49.2,47.0,99,97,88,30.09,29.88,6,2,9,1.02
2013-6-8,65.7,57.3,48.8,60.0,55.1,49.0,100,93,80,30.02,29.73,9,2,15,0.58
2013-6-9,73.2,63.9,55.7,57.0,54.6,52.0,98,74,49,30.17,30.02,12,2,16,0.00
2013-6-10,68.3,60.6,54.1,60.0,55.5,51.0,99,84,64,30.19,29.99,4,1,8,0.17
2013-6-11,57.2,53.8,51.2,56.0,53.5,51.0,100,99,95,29.97,29.59,6,1,13,1.13
2013-6-12,61.3,55.7,52.5,55.0,53.0,51.0,100,91,78,29.85,29.58,10,3,15,0.10
2013-6-13,63.5,55.7,49.9,56.0,52.4,49.0,99,89,67,29.83,29.71,3,0,7,0.27
2013-6-14,73.3,60.6,49.1,57.0,51.1,45.0,99,75,39,29.81,29.69,7,2,13,0.01
2013-6-15,72.2,63.5,54.6,51.0,45.4,41.0,69,53,37,29.93,29.81,11,3,14,0.00
2013-6-16,71.6,63.8,58.5,60.0,52.2,45.0,91,67,50,29.92,29.69,10,2,16,0.00
2013-6-17,75.2,64.6,57.1,63.0,58.6,54.0,97,82,53,29.89,29.76,11,4,28,0.30
2013-6-18,59.6,56.1,51.1,58.0,54.4,51.0,98,94,89,29.97,29.88,2,0,9,0.17
2013-6-19,69.1,58.5,48.7,52.0,46.8,38.0,99,69,36,30.17,29.95,7,2,12,0.00
2013-6-20,76.0,63.1,47.0,52.0,46.0,37.0,92,58,25,30.27,30.18,6,1,11,0.00
2013-6-21,80.6,69.2,59.0,58.0,53.8,50.0,84,60,38,30.24,30.18,7,2,12,0.00
2013-6-22,80.7,70.1,57.4,67.0,60.6,51.0,93,73,53,30.20,30.08,8,1,14,0.01
2013-6-23,87.8,74.1,64.1,72.0,67.3,63.0,95,80,57,30.12,29.93,8,2,16,0.38
2013-6-24,85.5,76.0,70.2,73.0,67.7,64.0,89,76,59,29.96,29.88,12,5,23,0.06
2013-6-25,85.7,74.2,67.0,70.0,66.6,64.0,97,78,53,29.93,29.72,12,3,19,0.49
2013-6-26,74.7,68.5,64.0,70.0,66.8,64.0,100,95,83,29.82,29.71,7,1,13,1.24
2013-6-27,74.5,66.6,61.8,70.0,65.3,62.0,100,96,85,29.82,29.73,6,1,11,0.03
2013-6-28,72.5,62.8,54.9,68.0,61.9,55.0,100,97,82,29.73,29.46,7,1,12,1.94
2013-6-29,82.8,71.4,63.5,69.0,66.1,64.0,100,85,57,29.66,29.49,10,1,13,0.44
2013-6-30,81.7,71.7,66.2,72.0,67.1,64.0,100,86,66,29.90,29.67,9,2,12,0.04
2013-7-1,77.8,70.5,67.1,72.0,68.8,67.0,100,95,80,30.04,29.90,6,0,7,0.30
2013-7-2,80.2,69.5,59.9,74.0,67.3,60.0,100,93,78,30.16,30.02,9,2,13,0.65
2013-7-3,84.4,73.1,60.5,72.0,68.5,61.0,100,86,65,30.17,30.10,9,3,15,0.10
2013-7-4,88.9,79.8,72.7,74.0,71.5,70.0,91,77,58,30.17,30.03,9,3,18,0.00
2013-7-5,89.2,80.2,73.5,74.0,71.4,70.0,90,76,54,30.11,30.00,11,3,15,0.00
2013-7-6,83.0,76.9,71.4,71.0,68.7,65.0,89,76,56,30.04,29.96,10,4,15,0.00
2013-7-7,87.3,75.8,68.7,75.0,68.2,62.0,97,78,59,30.00,29.88,5,1,12,0.47
2013-7-8,81.0,71.6,65.1,72.0,69.0,65.0,100,92,66,30.03,29.89,7,1,10,0.00
2013-7-9,77.7,68.9,63.1,71.0,66.2,62.0,100,91,77,30.08,30.02,5,1,9,0.00
2013-7-10,77.9,69.7,64.3,73.0,68.6,64.0,100,96,85,30.04,29.76,9,2,18,0.67
2013-7-11,77.5,72.6,63.4,71.0,67.4,60.0,97,84,64,29.95,29.73,11,3,16,0.00
2013-7-12,80.4,68.2,59.8,66.0,60.5,56.0,94,78,58,30.19,29.96,4,1,8,0.00
2013-7-13,77.2,67.4,58.2,70.0,63.1,55.0,99,86,71,30.30,30.20,3,0,9,0.08
2013-7-14,84.1,75.5,68.1,72.0,69.7,67.0,100,83,66,30.30,30.20,7,2,9,0.00
2013-7-15,87.1,77.0,67.1,72.0,67.9,65.0,98,76,49,30.20,30.10,6,1,12,0.00
2013-7-16,85.5,78.3,72.2,71.0,67.8,65.0,83,71,57,30.16,30.11,6,2,11,0.00
2013-7-17,90.1,79.8,67.9,72.0,68.5,65.0,93,70,46,30.16,29.94,13,2,18,0.00
2013-7-18,89.3,77.7,69.1,73.0,70.6,69.0,99,80,52,29.99,29.90,11,2,17,0.45
2013-7-19,90.5,81.5,68.9,75.0,71.7,69.0,100,74,52,29.91,29.67,11,4,22,0.00
2013-7-20,82.1,75.3,69.5,70.0,66.2,63.0,91,74,62,29.78,29.62,18,5,22,0.08
2013-7-21,79.0,70.5,62.8,66.0,62.1,59.0,96,76,53,29.97,29.79,12,2,13,0.00
2013-7-22,75.6,66.2,60.1,70.0,64.4,58.0,100,94,81,30.01,29.87,4,1,8,0.73
2013-7-23,76.9,66.5,62.4,70.0,65.2,62.0,100,96,78,29.87,29.54,5,1,9,1.81
2013-7-24,73.1,67.2,51.8,67.0,61.2,47.0,93,81,67,29.99,29.57,8,3,15,0.00
2013-7-25,70.7,59.2,48.1,60.0,53.1,46.0,91,81,62,30.11,29.99,4,1,6,0.00
2013-7-26,70.3,63.1,59.0,63.0,59.7,58.0,98,89,76,30.09,29.97,7,1,9,0.09
2013-7-27,81.0,68.8,57.6,68.0,59.6,55.0,96,75,47,30.05,29.96,7,2,18,0.00
2013-7-28,79.7,68.8,59.6,70.0,64.3,58.0,100,87,64,29.99,29.93,9,1,13,0.03
2013-7-29,80.4,70.1,63.8,69.0,63.5,55.0,100,81,55,30.04,29.95,6,1,12,0.03
2013-7-30,74.5,66.8,60.1,59.0,55.9,54.0,80,69,49,30.10,30.04,7,2,11,0.00
2013-7-31,78.7,68.8,60.1,64.0,58.4,56.0,87,71,50,30.13,30.02,7,2,12,0.00
2013-8-1,78.2,65.4,56.9,65.0,60.9,55.0,97,86,63,30.02,29.83,9,1,16,0.24
2013-8-2,76.1,68.4,62.1,64.0,59.5,51.0,99,75,45,29.83,29.77,9,3,14,0.00
2013-8-3,74.7,66.3,58.1,60.0,56.6,54.0,97,72,50,29.84,29.76,11,3,16,0.00
2013-8-4,69.1,62.8,57.0,59.0,55.1,51.0,89,76,61,29.90,29.79,8,3,18,0.03
2013-8-5,68.3,59.7,52.7,51.0,46.1,39.0,90,64,34,30.06,29.90,11,4,19,0.00
2013-8-6,76.7,62.7,47.8,58.0,51.2,46.0,92,68,39,30.14,30.06,3,1,7,0.00
2013-8-7,78.4,66.9,56.8,62.0,58.0,54.0,97,75,47,30.16,30.06,9,1,14,0.00
2013-8-8,81.7,71.7,63.3,70.0,66.2,59.0,94,83,68,30.06,29.96,11,2,18,0.00
2013-8-9,76.4,71.5,68.5,71.0,69.0,66.0,97,92,82,29.96,29.71,10,2,14,0.38
2013-8-10,74.2,68.0,59.1,67.0,56.3,45.0,95,69,37,30.01,29.77,14,4,21,0.00
2013-8-11,73.9,64.1,54.5,56.0,52.4,49.0,85,67,47,30.07,30.00,7,2,11,0.00
2013-8-12,76.5,67.7,59.6,59.0,55.6,52.0,82,66,50,30.02,29.90,9,2,13,0.00
2013-8-13,69.9,64.8,60.1,67.0,62.2,58.0,98,92,72,29.90,29.68,7,1,10,0.74
2013-8-14,66.9,59.7,52.9,64.0,53.2,49.0,97,80,61,29.95,29.65,14,4,21,0.00
2013-8-15,70.2,61.1,53.3,54.0,50.8,48.0,86,70,52,30.10,29.95,12,4,16,0.00
2013-8-16,73.9,64.5,56.9,57.0,53.2,49.0,80,67,52,30.19,30.09,8,2,13,0.00
2013-8-17,76.2,65.0,55.2,62.0,56.0,53.0,95,74,48,30.28,30.19,4,1,8,0.00
2013-8-18,73.9,65.3,56.3,63.0,58.2,54.0,97,79,57,30.27,30.07,7,1,11,0.00
2013-8-19,77.8,68.8,60.1,62.0,59.6,56.0,91,73,52,30.07,29.94,8,2,12,0.00
2013-8-20,80.7,71.5,62.4,63.0,60.8,58.0,87,70,49,30.08,29.98,8,2,12,0.00
2013-8-21,82.9,73.7,64.5,67.0,62.7,59.0,84,69,56,30.13,30.00,10,2,12,0.00
2013-8-22,83.6,74.9,66.5,67.0,63.4,60.0,95,69,46,30.00,29.79,11,3,16,0.03
2013-8-23,72.6,64.8,55.7,65.0,56.5,50.0,95,76,47,30.15,29.81,8,2,14,0.00
2013-8-24,76.1,60.8,47.7,57.0,48.6,44.0,95,68,34,30.34,30.15,4,1,6,0.00
2013-8-25,76.7,64.4,49.5,57.0,52.6,47.0,96,68,43,30.37,30.15,7,1,14,0.00
2013-8-26,74.5,68.2,60.7,67.0,62.8,56.0,92,83,66,30.16,29.86,20,5,24,0.14
2013-8-27,82.5,72.0,65.3,71.0,66.8,64.0,98,85,58,29.88,29.83,5,1,11,0.00
2013-8-28,82.9,70.8,62.6,72.0,66.8,62.0,100,88,67,29.98,29.84,9,1,11,0.79
2013-8-29,68.1,62.9,60.1,65.0,61.9,60.0,100,97,89,30.06,29.94,3,1,6,0.04
2013-8-30,81.0,70.0,59.9,67.0,63.9,60.0,100,82,59,30.02,29.79,17,2,17,0.00
2013-8-31,77.9,72.3,66.4,72.0,67.9,64.0,94,86,73,29.80,29.72,11,3,17,0.02
2013-9-1,79.7,72.2,68.2,74.0,69.2,67.0,99,90,71,29.85,29.76,12,2,16,0.17
2013-9-2,75.4,69.7,65.8,73.0,68.8,65.0,100,97,90,29.84,29.69,4,0,14,0.80
2013-9-3,70.5,64.9,58.7,64.0,61.2,56.0,100,89,71,29.81,29.68,9,2,13,0.00
2013-9-4,73.7,64.8,58.1,59.0,56.0,52.0,94,75,52,29.90,29.79,11,4,16,0.00
2013-9-5,64.9,58.1,46.4,57.0,47.5,39.0,93,69,43,30.16,29.84,7,2,14,0.00
2013-9-6,65.4,53.9,42.3,47.0,41.7,39.0,88,65,44,30.25,30.09,12,2,16,0.00
2013-9-7,69.6,61.3,56.1,53.0,47.4,42.0,76,61,45,30.08,29.83,11,4,19,0.00
2013-9-8,62.4,57.2,47.7,57.0,46.5,39.0,91,68,53,30.09,29.75,13,5,20,0.00
2013-9-9,67.3,55.4,43.4,50.0,43.7,38.0,85,66,39,30.23,30.09,8,2,24,0.00
2013-9-10,71.5,63.8,55.2,68.0,61.0,50.0,100,91,73,30.12,30.01,6,1,15,0.12
2013-9-11,89.4,78.3,66.3,76.0,71.2,63.0,100,80,59,30.05,29.91,11,4,21,0.19
2013-9-12,78.1,69.4,64.6,72.0,66.3,63.0,100,90,72,29.91,29.64,10,2,13,0.85
2013-9-13,65.3,60.8,52.9,65.0,59.4,51.0,100,95,89,29.79,29.59,8,2,14,0.07
2013-9-14,57.6,53.4,50.2,51.0,50.1,49.0,97,89,78,30.06,29.78,8,3,13,0.00
2013-9-15,65.5,54.9,44.4,53.0,48.8,44.0,99,81,60,30.16,30.03,12,2,15,0.00
2013-9-16,58.0,52.3,40.0,53.0,46.6,35.0,95,81,67,30.29,29.99,12,3,16,0.10
2013-9-17,61.8,48.5,37.5,45.0,39.6,35.0,90,72,49,30.46,30.29,5,1,9,0.00
2013-9-18,70.6,55.4,41.1,51.0,44.6,37.0,96,70,34,30.35,30.14,7,1,14,0.00
2013-9-19,78.7,61.6,46.7,57.0,49.9,43.0,95,67,42,30.14,30.04,5,1,11,0.00
2013-9-20,78.4,61.8,50.1,60.0,54.6,49.0,97,79,48,30.11,29.98,2,0,6,0.00
2013-9-21,70.5,62.0,50.6,62.0,56.0,47.0,98,82,49,29.99,29.66,9,2,18,0.00
2013-9-22,66.0,57.0,45.8,63.0,52.8,42.0,97,86,69,29.84,29.57,11,3,17,0.58
2013-9-23,51.7,45.9,41.7,42.0,39.9,38.0,88,80,68,30.03,29.84,10,5,17,0.00
2013-9-24,59.8,49.9,43.6,44.0,40.9,38.0,83,72,47,30.02,29.86,12,4,19,0.00
2013-9-25,62.3,53.7,48.3,52.0,46.9,43.0,86,78,67,30.00,29.90,7,2,12,0.00
2013-9-26,64.0,52.6,43.1,52.0,46.6,42.0,95,81,60,30.16,30.00,6,1,9,0.00
2013-9-27,66.6,54.8,49.8,54.0,50.3,48.0,96,85,60,30.29,30.16,4,0,6,0.00
2013-9-28,71.6,56.7,47.3,58.0,50.9,46.0,99,83,53,30.36,30.27,3,0,5,0.00
2013-9-29,70.4,56.0,46.7,56.0,49.8,45.0,100,82,52,30.27,30.10,3,0,7,0.01
2013-9-30,71.8,54.0,43.1,55.0,48.1,42.0,99,83,49,30.12,29.99,3,0,5,0.00
2013-10-1,72.7,59.3,45.5,58.0,52.5,45.0,99,80,57,30.00,29.88,8,1,12,0.01
2013-10-2,72.7,65.1,59.5,60.0,56.4,52.0,82,74,59,29.95,29.83,12,4,22,0.00
2013-10-3,71.2,61.5,53.0,54.0,48.9,46.0,82,64,44,30.09,29.95,10,2,13,0.00
2013-10-4,62.2,55.7,48.4,57.0,51.8,47.0,95,87,77,30.10,30.04,1,0,3,0.01
2013-10-5,62.0,57.8,55.0,55.0,52.8,48.0,97,84,70,30.13,30.07,2,0,4,0.01
2013-10-6,56.9,49.4,45.4,55.0,48.0,43.0,100,95,73,30.21,30.12,7,2,11,0.35
2013-10-7,67.3,55.1,48.5,66.0,54.4,48.0,100,97,84,30.14,29.73,9,2,16,0.47
2013-10-8,58.7,50.6,41.0,48.0,40.5,36.0,89,70,44,30.40,29.90,13,3,18,0.00
2013-10-9,61.7,46.2,35.9,45.0,39.0,34.0,97,78,48,30.51,30.39,4,0,6,0.00
2013-10-10,60.7,49.0,38.8,51.0,41.9,33.0,94,78,53,30.39,30.22,3,0,3,0.00
2013-10-11,67.2,54.5,45.8,50.0,43.2,32.0,89,67,45,30.21,30.14,2,0,4,0.00
2013-10-12,52.4,50.0,46.7,52.0,48.4,43.0,100,95,74,30.41,30.20,4,1,6,0.02
2013-10-13,59.1,48.1,41.1,50.0,45.4,41.0,100,91,70,30.47,30.39,4,0,7,0.01
2013-10-14,65.3,52.3,40.9,55.0,48.0,41.0,100,87,60,30.40,30.25,4,0,5,0.00
2013-10-15,60.5,56.6,52.0,55.0,53.3,50.0,96,89,81,30.27,30.15,4,0,10,0.00
2013-10-16,57.0,52.6,49.3,52.0,49.4,47.0,97,89,81,30.15,29.89,4,1,8,0.00
2013-10-17,66.2,58.4,51.1,55.0,50.8,46.0,97,77,53,29.88,29.70,11,2,15,0.00
2013-10-18,56.9,53.2,48.4,54.0,46.8,37.0,100,80,61,29.89,29.57,16,5,21,0.12
2013-10-19,61.4,53.1,46.1,45.0,41.5,38.0,81,65,49,29.94,29.71,12,3,18,0.00
2013-10-20,52.1,48.1,41.8,47.0,38.9,34.0,92,71,52,30.01,29.65,14,5,19,0.00
2013-10-21,61.5,50.9,39.7,43.0,39.3,36.0,92,66,49,30.09,29.95,11,2,15,0.00
2013-10-22,55.3,49.4,41.1,49.0,42.2,32.0,89,77,61,29.94,29.71,11,3,17,0.01
2013-10-23,49.6,42.6,36.3,36.0,32.2,29.0,83,67,47,29.77,29.59,8,2,11,0.00
2013-10-24,42.5,38.4,32.2,36.0,31.5,28.0,96,77,61,29.88,29.66,18,4,21,0.01
2013-10-25,42.3,37.1,34.0,33.0,29.1,26.0,89,74,54,30.13,29.89,14,4,18,0.00
2013-10-26,45.6,41.0,34.9,33.0,30.2,26.0,88,67,47,30.14,29.85,10,3,18,0.00
2013-10-27,47.3,42.2,37.3,36.0,31.7,28.0,77,66,53,30.04,29.78,9,3,16,0.00
2013-10-28,49.2,39.2,29.8,36.0,30.0,21.0,80,70,57,30.37,30.04,14,4,23,0.00
2013-10-29,42.8,32.0,24.2,24.0,19.4,15.0,83,61,33,30.47,30.37,5,1,8,0.00
2013-10-30,44.1,36.5,30.6,37.0,29.2,18.0,94,75,56,30.39,30.23,9,1,14,0.00
2013-10-31,59.2,47.8,35.9,57.0,45.6,35.0,98,92,78,30.26,29.73,15,2,24,0.25
2013-11-1,64.8,59.6,52.4,61.0,54.4,43.0,94,84,60,29.72,29.36,19,7,29,0.53
2013-11-2,57.4,49.5,38.4,45.0,42.3,35.0,94,77,58,29.79,29.59,10,3,16,0.09
2013-11-3,37.9,32.4,26.2,35.0,22.0,15.0,88,67,46,30.47,29.80,9,4,15,0.00
2013-11-4,37.7,28.0,21.7,19.0,16.1,15.0,77,62,40,30.73,30.47,4,1,8,0.00
2013-11-5,47.5,35.0,24.6,34.0,25.8,16.0,88,69,53,30.73,30.51,7,0,10,0.00
2013-11-6,57.0,46.3,35.8,46.0,40.5,33.0,96,81,64,30.51,29.98,16,2,22,0.00
2013-11-7,55.1,47.3,34.3,53.0,44.5,31.0,97,90,82,29.97,29.68,12,4,17,0.14
2013-11-8,38.6,32.9,28.8,32.0,25.9,23.0,86,75,67,30.08,29.80,11,4,19,0.00
2013-11-9,39.2,34.1,29.5,31.0,23.7,21.0,84,66,52,30.20,30.02,10,2,15,0.00
2013-11-10,42.6,36.8,30.5,39.0,34.0,30.0,99,90,78,30.01,29.75,13,3,20,0.07
2013-11-11,45.6,37.8,31.8,31.0,28.0,24.0,84,68,43,30.09,29.88,16,4,21,0.00
2013-11-12,40.1,27.9,22.9,34.0,20.2,15.0,94,73,59,30.20,29.88,11,5,19,0.00
2013-11-13,28.3,23.5,18.0,20.0,13.9,11.0,82,67,48,30.33,30.13,12,5,22,0.00
2013-11-14,42.7,36.7,28.7,29.0,23.2,17.0,70,58,38,30.13,30.07,18,6,24,0.00
2013-11-15,53.9,45.9,41.1,22.0,17.0,13.0,44,31,23,30.19,30.10,17,4,23,0.00
2013-11-16,56.3,46.7,39.3,33.0,26.7,19.0,67,46,32,30.31,30.18,14,1,14,0.00
2013-11-17,44.2,41.1,37.8,44.0,37.5,29.0,99,87,66,30.30,29.84,8,1,9,0.11
2013-11-18,57.7,49.4,41.4,58.0,42.3,31.0,100,78,49,29.82,29.51,11,3,21,0.42
2013-11-19,40.7,31.3,25.7,31.0,20.8,15.0,83,65,57,30.32,29.63,17,7,31,0.00
2013-11-20,34.3,26.9,21.6,17.0,15.0,12.0,80,62,42,30.66,30.32,19,3,19,0.00
2013-11-21,43.5,31.9,19.3,31.0,15.7,4.0,76,54,20,30.68,30.38,11,1,16,0.00
2013-11-22,43.5,38.9,36.0,42.0,36.8,30.0,100,92,72,30.37,29.81,15,2,18,0.19
2013-11-23,43.3,31.8,21.6,42.0,24.1,12.0,95,74,53,29.93,29.76,16,6,23,0.00
2013-11-24,21.1,15.8,11.3,19.0,4.6,-3.0,94,62,44,30.22,29.78,23,8,36,0.00
2013-11-25,27.1,17.8,8.2,14.0,4.3,-3.0,65,55,38,30.41,30.22,12,3,18,0.00
2013-11-26,32.9,28.8,24.8,29.0,23.3,13.0,98,81,55,30.32,30.07,9,1,15,0.00
2013-11-27,47.4,37.3,29.9,47.0,36.8,28.0,100,98,90,30.06,29.31,19,3,20,1.03
2013-11-28,30.4,21.5,15.4,28.0,13.2,6.0,95,71,52,30.43,29.46,16,6,27,0.00
2013-11-29,23.6,16.3,11.9,10.0,7.4,6.0,85,68,48,30.79,30.43,12,2,14,0.00
2013-11-30,28.1,18.1,7.8,17.0,10.1,4.0,85,71,50,30.84,30.45,4,0,7,0.00
2013-12-1,36.6,31.1,24.7,32.0,27.7,18.0,98,87,75,30.45,30.06,5,0,12,0.00
2013-12-2,36.8,34.3,32.4,36.0,33.8,32.0,99,98,96,30.06,29.93,0,0,1,0.00
2013-12-3,39.9,32.5,29.4,36.0,31.4,29.0,100,95,82,29.97,29.90,7,1,9,0.00
2013-12-4,37.7,31.4,27.5,29.0,26.0,22.0,96,81,63,30.21,29.97,12,2,14,0.00
2013-12-5,53.6,35.9,29.0,53.0,34.0,26.0,100,93,78,30.22,29.91,8,1,23,0.01
2013-12-6,52.9,40.5,29.6,52.0,37.3,27.0,99,89,72,30.13,29.88,9,3,14,0.18
2013-12-7,29.6,27.4,23.4,29.0,22.5,16.0,98,82,60,30.45,30.08,8,3,19,0.00
2013-12-8,23.8,21.9,18.6,18.0,14.5,13.0,83,73,64,30.59,30.45,6,1,9,0.00
2013-12-9,32.4,24.7,19.5,31.0,22.4,13.0,99,91,70,30.51,29.90,6,2,12,0.00
2013-12-10,32.1,26.7,17.8,30.0,21.0,10.0,94,79,55,29.95,29.78,11,4,16,0.00
2013-12-11,25.9,20.3,15.7,18.0,13.7,10.0,92,76,54,30.16,29.96,10,3,18,0.00
2013-12-12,17.4,13.1,9.9,14.0,4.8,-2.0,92,70,44,30.27,30.03,13,4,19,0.00
2013-12-13,18.8,12.2,0.7,15.0,7.4,-4.0,91,81,69,30.43,29.95,10,3,16,0.00
2013-12-14,10.2,3.8,-2.2,8.0,-2.5,-8.0,92,76,52,30.64,30.25,6,1,12,0.00
2013-12-15,22.4,17.6,10.0,21.0,16.2,8.0,96,94,91,30.21,29.55,10,3,21,0.00
2013-12-16,19.8,15.5,2.7,18.0,8.0,-3.0,94,73,49,30.21,29.73,14,5,26,0.00
2013-12-17,12.3,3.7,-5.1,10.0,0.2,-9.0,93,85,71,30.29,30.08,4,0,10,0.00
2013-12-18,25.7,18.6,9.4,21.0,15.4,8.0,93,87,79,30.08,29.96,10,2,18,0.00
2013-12-19,35.1,29.8,24.3,30.0,23.5,21.0,87,78,66,30.10,29.95,10,4,18,0.00
2013-12-20,46.4,40.3,33.6,40.0,33.9,30.0,89,78,61,30.11,29.90,14,3,17,0.17
2013-12-21,55.2,49.3,44.4,52.0,45.4,40.0,100,87,76,29.90,29.83,18,3,18,0.16
2013-12-22,48.2,37.0,31.5,48.0,36.8,32.0,100,99,97,29.98,29.69,7,1,13,0.07
2013-12-23,36.3,32.5,30.1,36.0,32.1,28.0,100,99,88,30.14,29.98,9,1,13,0.01
2013-12-24,30.8,23.5,15.1,27.0,17.3,8.0,87,77,62,30.22,30.07,11,4,16,0.00
2013-12-25,17.0,10.1,3.1,8.0,2.9,-2.0,83,72,57,30.55,30.21,12,3,16,0.00
2013-12-26,26.0,20.4,12.4,25.0,17.4,6.0,96,88,74,30.51,30.13,6,2,12,0.00
2013-12-27,27.0,25.0,22.2,22.0,20.3,18.0,92,82,70,30.25,30.19,12,3,17,0.00
2013-12-28,37.9,33.2,25.8,32.0,27.2,21.0,85,79,69,30.19,29.99,16,5,22,0.04
2013-12-29,39.9,35.4,31.8,33.0,31.4,29.0,99,86,72,30.02,29.57,14,1,16,0.03
2013-12-30,34.7,24.2,4.0,34.0,20.0,-1.0,99,84,65,30.17,29.57,15,3,23,0.05
2013-12-31,16.0,7.8,-0.4,13.0,2.8,-9.0,92,80,65,30.19,30.05,9,1,17,0.00
2014-1-1,16.0,12.0,8.4,10.0,6.9,5.0,88,80,69,30.41,30.19,12,4,17,0.00
2014-1-2,9.6,4.0,-2.7,6.0,0.9,-6.0,89,87,85,30.40,29.97,4,0,9,0.00